sensor_id;sensor_type;location;lat;lon;timestamp;temperature;humidity
18191;DHT22;47004;51.366;12.348;2023-06-22T00:00:19;21.50;99.90
18191;DHT22;47004;51.366;12.348;2023-06-22T00:02:22;21.50;99.90
18191;DHT22;47004;51.366;12.348;2023-06-22T00:04:26;21.50;99.90
18191;DHT22;47004;51.366;12.348;2023-06-22T00:06:28;21.50;99.90
18191;DHT22;47004;51.366;12.348;2023-06-22T00:08:30;21.50;99.90
18191;DHT22;47004;51.366;12.348;2023-06-22T00:10:33;21.50;99.90
18191;DHT22;47004;51.366;12.348;2023-06-22T00:12:35;21.50;99.90
18191;DHT22;47004;51.366;12.348;2023-06-22T00:14:38;21.50;99.90
18191;DHT22;47004;51.366;12.348;2023-06-22T00:16:40;21.50;99.90
18191;DHT22;47004;51.366;12.348;2023-06-22T00:18:43;21.50;99.90
18191;DHT22;47004;51.366;12.348;2023-06-22T00:20:47;21.50;99.90
18191;DHT22;47004;51.366;12.348;2023-06-22T00:22:49;21.50;99.90
18191;DHT22;47004;51.366;12.348;2023-06-22T00:24:51;21.40;99.90
18191;DHT22;47004;51.366;12.348;2023-06-22T00:26:54;21.40;99.90
18191;DHT22;47004;51.366;12.348;2023-06-22T00:28:56;21.40;99.90
18191;DHT22;47004;51.366;12.348;2023-06-22T00:30:58;21.30;99.90
18191;DHT22;47004;51.366;12.348;2023-06-22T00:33:01;21.30;99.90
18191;DHT22;47004;51.366;12.348;2023-06-22T00:35:03;21.30;99.90
18191;DHT22;47004;51.366;12.348;2023-06-22T00:37:05;21.30;99.90
18191;DHT22;47004;51.366;12.348;2023-06-22T00:39:07;21.20;99.90
18191;DHT22;47004;51.366;12.348;2023-06-22T00:41:09;21.20;99.90
18191;DHT22;47004;51.366;12.348;2023-06-22T00:43:12;21.20;99.90
18191;DHT22;47004;51.366;12.348;2023-06-22T00:45:14;21.20;99.90
18191;DHT22;47004;51.366;12.348;2023-06-22T00:47:18;21.10;99.90
18191;DHT22;47004;51.366;12.348;2023-06-22T00:49:20;21.10;99.90
18191;DHT22;47004;51.366;12.348;2023-06-22T00:51:22;21.10;99.90
18191;DHT22;47004;51.366;12.348;2023-06-22T00:53:25;21.10;99.90
18191;DHT22;47004;51.366;12.348;2023-06-22T00:55:27;21.00;99.90
18191;DHT22;47004;51.366;12.348;2023-06-22T00:57:30;21.00;99.90
18191;DHT22;47004;51.366;12.348;2023-06-22T00:59:34;21.00;99.90
18191;DHT22;47004;51.366;12.348;2023-06-22T01:01:36;21.00;99.90
18191;DHT22;47004;51.366;12.348;2023-06-22T01:03:41;21.00;99.90
18191;DHT22;47004;51.366;12.348;2023-06-22T01:05:43;21.00;99.90
18191;DHT22;47004;51.366;12.348;2023-06-22T01:08:00;20.90;99.90
18191;DHT22;47004;51.366;12.348;2023-06-22T01:10:08;20.90;99.90
18191;DHT22;47004;51.366;12.348;2023-06-22T01:12:13;20.80;99.90
18191;DHT22;47004;51.366;12.348;2023-06-22T01:14:22;20.80;99.90
18191;DHT22;47004;51.366;12.348;2023-06-22T01:16:29;20.80;99.90
18191;DHT22;47004;51.366;12.348;2023-06-22T01:18:32;20.70;99.90
18191;DHT22;47004;51.366;12.348;2023-06-22T01:20:37;20.70;99.90
18191;DHT22;47004;51.366;12.348;2023-06-22T01:22:49;20.70;99.90
18191;DHT22;47004;51.366;12.348;2023-06-22T01:25:00;20.70;99.90
18191;DHT22;47004;51.366;12.348;2023-06-22T01:27:17;20.60;99.90
18191;DHT22;47004;51.366;12.348;2023-06-22T01:29:24;20.60;99.90
18191;DHT22;47004;51.366;12.348;2023-06-22T01:31:28;20.60;99.90
18191;DHT22;47004;51.366;12.348;2023-06-22T01:33:33;20.50;99.90
18191;DHT22;47004;51.366;12.348;2023-06-22T01:35:36;20.50;99.90
18191;DHT22;47004;51.366;12.348;2023-06-22T01:37:38;20.50;99.90
18191;DHT22;47004;51.366;12.348;2023-06-22T01:39:41;20.50;99.90
18191;DHT22;47004;51.366;12.348;2023-06-22T01:41:43;20.50;99.90
18191;DHT22;47004;51.366;12.348;2023-06-22T01:43:46;20.50;99.90
18191;DHT22;47004;51.366;12.348;2023-06-22T01:45:50;20.40;99.90
18191;DHT22;47004;51.366;12.348;2023-06-22T01:47:52;20.40;99.90
18191;DHT22;47004;51.366;12.348;2023-06-22T01:49:55;20.40;99.90
18191;DHT22;47004;51.366;12.348;2023-06-22T01:51:57;20.40;99.90
18191;DHT22;47004;51.366;12.348;2023-06-22T01:54:00;20.40;99.90
18191;DHT22;47004;51.366;12.348;2023-06-22T01:56:02;20.40;99.90
18191;DHT22;47004;51.366;12.348;2023-06-22T01:58:04;20.30;99.90
18191;DHT22;47004;51.366;12.348;2023-06-22T02:00:10;20.40;99.90
18191;DHT22;47004;51.366;12.348;2023-06-22T02:02:17;20.30;99.90
18191;DHT22;47004;51.366;12.348;2023-06-22T02:04:26;20.30;99.90
18191;DHT22;47004;51.366;12.348;2023-06-22T02:06:33;20.30;99.90
18191;DHT22;47004;51.366;12.348;2023-06-22T02:08:41;20.30;99.90
18191;DHT22;47004;51.366;12.348;2023-06-22T02:10:45;20.30;99.90
18191;DHT22;47004;51.366;12.348;2023-06-22T02:12:48;20.30;99.90
18191;DHT22;47004;51.366;12.348;2023-06-22T02:14:52;20.20;99.90
18191;DHT22;47004;51.366;12.348;2023-06-22T02:16:54;20.20;99.90
18191;DHT22;47004;51.366;12.348;2023-06-22T02:19:02;20.20;99.90
18191;DHT22;47004;51.366;12.348;2023-06-22T02:21:04;20.20;99.90
18191;DHT22;47004;51.366;12.348;2023-06-22T02:23:06;20.10;99.90
18191;DHT22;47004;51.366;12.348;2023-06-22T02:25:08;20.20;99.90
18191;DHT22;47004;51.366;12.348;2023-06-22T02:27:10;20.10;99.90
18191;DHT22;47004;51.366;12.348;2023-06-22T02:29:13;20.10;99.90
18191;DHT22;47004;51.366;12.348;2023-06-22T02:31:15;20.10;99.90
18191;DHT22;47004;51.366;12.348;2023-06-22T02:33:17;20.10;99.90
18191;DHT22;47004;51.366;12.348;2023-06-22T02:35:20;20.10;99.90
18191;DHT22;47004;51.366;12.348;2023-06-22T02:37:22;20.00;99.90
18191;DHT22;47004;51.366;12.348;2023-06-22T02:39:25;20.00;99.90
18191;DHT22;47004;51.366;12.348;2023-06-22T02:41:28;20.00;99.90
18191;DHT22;47004;51.366;12.348;2023-06-22T02:43:30;20.00;99.90
18191;DHT22;47004;51.366;12.348;2023-06-22T02:45:31;20.00;99.90
18191;DHT22;47004;51.366;12.348;2023-06-22T02:47:33;20.00;99.90
18191;DHT22;47004;51.366;12.348;2023-06-22T02:49:35;20.00;99.90
18191;DHT22;47004;51.366;12.348;2023-06-22T02:51:41;20.00;99.90
18191;DHT22;47004;51.366;12.348;2023-06-22T02:53:44;20.00;99.90
18191;DHT22;47004;51.366;12.348;2023-06-22T02:55:46;19.90;99.90
18191;DHT22;47004;51.366;12.348;2023-06-22T02:57:48;19.90;99.90
18191;DHT22;47004;51.366;12.348;2023-06-22T02:59:53;19.90;99.90
18191;DHT22;47004;51.366;12.348;2023-06-22T03:01:55;19.90;99.90
18191;DHT22;47004;51.366;12.348;2023-06-22T03:03:58;19.90;99.90
18191;DHT22;47004;51.366;12.348;2023-06-22T03:06:00;19.90;99.90
18191;DHT22;47004;51.366;12.348;2023-06-22T03:08:03;19.90;99.90
18191;DHT22;47004;51.366;12.348;2023-06-22T03:10:06;19.90;99.90
18191;DHT22;47004;51.366;12.348;2023-06-22T03:12:10;19.80;99.90
18191;DHT22;47004;51.366;12.348;2023-06-22T03:14:11;19.80;99.90
18191;DHT22;47004;51.366;12.348;2023-06-22T03:16:13;19.80;99.90
18191;DHT22;47004;51.366;12.348;2023-06-22T03:18:15;19.80;99.90
18191;DHT22;47004;51.366;12.348;2023-06-22T03:20:17;19.80;99.90
18191;DHT22;47004;51.366;12.348;2023-06-22T03:22:19;19.80;99.90
18191;DHT22;47004;51.366;12.348;2023-06-22T03:24:23;19.80;99.90
18191;DHT22;47004;51.366;12.348;2023-06-22T03:26:25;19.80;99.90
18191;DHT22;47004;51.366;12.348;2023-06-22T03:28:27;19.80;99.90
18191;DHT22;47004;51.366;12.348;2023-06-22T03:30:29;19.90;99.90
18191;DHT22;47004;51.366;12.348;2023-06-22T03:32:31;19.90;99.90
18191;DHT22;47004;51.366;12.348;2023-06-22T03:34:33;19.90;99.90
18191;DHT22;47004;51.366;12.348;2023-06-22T03:36:37;19.90;99.90
18191;DHT22;47004;51.366;12.348;2023-06-22T03:38:39;19.90;99.90
18191;DHT22;47004;51.366;12.348;2023-06-22T03:40:42;19.90;99.90
18191;DHT22;47004;51.366;12.348;2023-06-22T03:42:45;19.90;99.90
18191;DHT22;47004;51.366;12.348;2023-06-22T03:44:47;19.90;99.90
18191;DHT22;47004;51.366;12.348;2023-06-22T03:46:49;19.90;99.90
18191;DHT22;47004;51.366;12.348;2023-06-22T03:48:51;19.90;99.90
18191;DHT22;47004;51.366;12.348;2023-06-22T03:50:53;19.90;99.90
18191;DHT22;47004;51.366;12.348;2023-06-22T03:52:55;19.90;99.90
18191;DHT22;47004;51.366;12.348;2023-06-22T03:54:57;19.80;99.90
18191;DHT22;47004;51.366;12.348;2023-06-22T03:57:00;19.90;99.90
18191;DHT22;47004;51.366;12.348;2023-06-22T03:59:02;19.90;99.90
18191;DHT22;47004;51.366;12.348;2023-06-22T04:01:04;19.90;99.90
18191;DHT22;47004;51.366;12.348;2023-06-22T04:03:07;19.90;99.90
18191;DHT22;47004;51.366;12.348;2023-06-22T04:05:09;19.90;99.90
18191;DHT22;47004;51.366;12.348;2023-06-22T04:07:11;20.00;99.90
18191;DHT22;47004;51.366;12.348;2023-06-22T04:09:13;20.00;99.90
18191;DHT22;47004;51.366;12.348;2023-06-22T04:11:15;20.10;99.90
18191;DHT22;47004;51.366;12.348;2023-06-22T04:13:18;20.20;99.90
18191;DHT22;47004;51.366;12.348;2023-06-22T04:15:20;20.20;99.90
18191;DHT22;47004;51.366;12.348;2023-06-22T04:17:22;20.30;99.90
18191;DHT22;47004;51.366;12.348;2023-06-22T04:19:25;20.40;99.90
18191;DHT22;47004;51.366;12.348;2023-06-22T04:21:27;20.50;99.90
18191;DHT22;47004;51.366;12.348;2023-06-22T04:23:29;20.50;99.90
18191;DHT22;47004;51.366;12.348;2023-06-22T04:25:31;20.60;99.90
18191;DHT22;47004;51.366;12.348;2023-06-22T04:27:33;20.60;99.90
18191;DHT22;47004;51.366;12.348;2023-06-22T04:29:39;20.60;99.90
18191;DHT22;47004;51.366;12.348;2023-06-22T04:31:49;20.60;99.90
18191;DHT22;47004;51.366;12.348;2023-06-22T04:33:51;20.70;99.90
18191;DHT22;47004;51.366;12.348;2023-06-22T04:35:54;20.70;99.90
18191;DHT22;47004;51.366;12.348;2023-06-22T04:37:58;20.70;99.90
18191;DHT22;47004;51.366;12.348;2023-06-22T04:40:00;20.80;99.90
18191;DHT22;47004;51.366;12.348;2023-06-22T04:42:05;20.90;99.90
18191;DHT22;47004;51.366;12.348;2023-06-22T04:44:07;20.90;99.90
18191;DHT22;47004;51.366;12.348;2023-06-22T04:46:11;20.90;99.90
18191;DHT22;47004;51.366;12.348;2023-06-22T04:48:13;21.00;99.90
18191;DHT22;47004;51.366;12.348;2023-06-22T04:50:16;21.00;99.90
18191;DHT22;47004;51.366;12.348;2023-06-22T04:52:21;21.00;99.90
18191;DHT22;47004;51.366;12.348;2023-06-22T04:54:25;21.00;99.90
18191;DHT22;47004;51.366;12.348;2023-06-22T04:56:27;21.10;99.90
18191;DHT22;47004;51.366;12.348;2023-06-22T04:58:29;21.10;99.90
18191;DHT22;47004;51.366;12.348;2023-06-22T05:00:33;21.10;99.90
18191;DHT22;47004;51.366;12.348;2023-06-22T05:02:38;21.10;99.90
18191;DHT22;47004;51.366;12.348;2023-06-22T05:04:40;21.10;99.90
18191;DHT22;47004;51.366;12.348;2023-06-22T05:06:42;21.10;99.90
18191;DHT22;47004;51.366;12.348;2023-06-22T05:08:44;21.20;99.90
18191;DHT22;47004;51.366;12.348;2023-06-22T05:10:46;21.20;99.90
18191;DHT22;47004;51.366;12.348;2023-06-22T05:12:48;21.30;99.90
18191;DHT22;47004;51.366;12.348;2023-06-22T05:14:50;21.30;99.90
18191;DHT22;47004;51.366;12.348;2023-06-22T05:16:52;21.40;99.90
18191;DHT22;47004;51.366;12.348;2023-06-22T05:18:55;21.40;99.90
18191;DHT22;47004;51.366;12.348;2023-06-22T05:20:57;21.50;99.90
18191;DHT22;47004;51.366;12.348;2023-06-22T05:22:59;21.60;99.90
18191;DHT22;47004;51.366;12.348;2023-06-22T05:25:01;21.70;99.90
18191;DHT22;47004;51.366;12.348;2023-06-22T05:27:04;21.80;99.90
18191;DHT22;47004;51.366;12.348;2023-06-22T05:29:06;21.80;99.90
18191;DHT22;47004;51.366;12.348;2023-06-22T05:31:08;21.90;99.90
18191;DHT22;47004;51.366;12.348;2023-06-22T05:33:10;22.00;99.90
18191;DHT22;47004;51.366;12.348;2023-06-22T05:35:13;22.10;99.90
18191;DHT22;47004;51.366;12.348;2023-06-22T05:37:15;22.20;99.90
18191;DHT22;47004;51.366;12.348;2023-06-22T05:39:17;22.20;99.90
18191;DHT22;47004;51.366;12.348;2023-06-22T05:41:19;22.20;99.90
18191;DHT22;47004;51.366;12.348;2023-06-22T05:43:21;22.20;99.90
18191;DHT22;47004;51.366;12.348;2023-06-22T05:45:23;22.30;99.90
18191;DHT22;47004;51.366;12.348;2023-06-22T05:47:25;22.30;99.90
18191;DHT22;47004;51.366;12.348;2023-06-22T05:49:27;22.30;99.90
18191;DHT22;47004;51.366;12.348;2023-06-22T05:51:34;22.30;99.90
18191;DHT22;47004;51.366;12.348;2023-06-22T05:53:36;22.40;99.90
18191;DHT22;47004;51.366;12.348;2023-06-22T05:55:38;22.40;99.90
18191;DHT22;47004;51.366;12.348;2023-06-22T05:57:40;22.50;99.90
18191;DHT22;47004;51.366;12.348;2023-06-22T05:59:42;22.50;99.90
18191;DHT22;47004;51.366;12.348;2023-06-22T06:01:46;22.60;99.90
18191;DHT22;47004;51.366;12.348;2023-06-22T06:03:50;22.70;99.90
18191;DHT22;47004;51.366;12.348;2023-06-22T06:05:55;22.80;99.90
18191;DHT22;47004;51.366;12.348;2023-06-22T06:07:58;22.90;99.90
18191;DHT22;47004;51.366;12.348;2023-06-22T06:10:00;23.00;99.90
18191;DHT22;47004;51.366;12.348;2023-06-22T06:12:03;23.00;99.90
18191;DHT22;47004;51.366;12.348;2023-06-22T06:14:08;23.10;99.90
18191;DHT22;47004;51.366;12.348;2023-06-22T06:16:10;23.10;99.90
18191;DHT22;47004;51.366;12.348;2023-06-22T06:18:12;23.10;99.90
18191;DHT22;47004;51.366;12.348;2023-06-22T06:20:14;23.10;99.90
18191;DHT22;47004;51.366;12.348;2023-06-22T06:22:18;23.20;99.90
18191;DHT22;47004;51.366;12.348;2023-06-22T06:24:22;23.30;99.90
18191;DHT22;47004;51.366;12.348;2023-06-22T06:26:24;23.40;99.90
18191;DHT22;47004;51.366;12.348;2023-06-22T06:28:30;23.50;99.90
18191;DHT22;47004;51.366;12.348;2023-06-22T06:30:32;23.60;99.90
18191;DHT22;47004;51.366;12.348;2023-06-22T06:32:34;23.80;99.90
18191;DHT22;47004;51.366;12.348;2023-06-22T06:34:36;23.90;99.90
18191;DHT22;47004;51.366;12.348;2023-06-22T06:36:38;24.00;99.90
18191;DHT22;47004;51.366;12.348;2023-06-22T06:38:40;24.00;99.90
18191;DHT22;47004;51.366;12.348;2023-06-22T06:40:43;24.10;99.90
18191;DHT22;47004;51.366;12.348;2023-06-22T06:42:46;24.20;99.90
18191;DHT22;47004;51.366;12.348;2023-06-22T06:44:48;24.30;99.90
18191;DHT22;47004;51.366;12.348;2023-06-22T06:46:50;24.40;99.90
18191;DHT22;47004;51.366;12.348;2023-06-22T06:48:52;24.40;99.90
18191;DHT22;47004;51.366;12.348;2023-06-22T06:50:54;24.50;99.90
18191;DHT22;47004;51.366;12.348;2023-06-22T06:52:56;24.60;99.90
18191;DHT22;47004;51.366;12.348;2023-06-22T06:55:00;24.80;99.90
18191;DHT22;47004;51.366;12.348;2023-06-22T06:57:04;24.80;99.90
18191;DHT22;47004;51.366;12.348;2023-06-22T06:59:06;25.00;99.90
18191;DHT22;47004;51.366;12.348;2023-06-22T07:01:07;25.10;99.90
18191;DHT22;47004;51.366;12.348;2023-06-22T07:03:09;25.20;99.90
18191;DHT22;47004;51.366;12.348;2023-06-22T07:05:12;25.20;99.90
18191;DHT22;47004;51.366;12.348;2023-06-22T07:07:14;25.30;99.90
18191;DHT22;47004;51.366;12.348;2023-06-22T07:09:16;25.40;99.90
18191;DHT22;47004;51.366;12.348;2023-06-22T07:11:19;25.50;99.90
18191;DHT22;47004;51.366;12.348;2023-06-22T07:13:22;25.60;99.90
18191;DHT22;47004;51.366;12.348;2023-06-22T07:15:24;25.70;99.90
18191;DHT22;47004;51.366;12.348;2023-06-22T07:17:26;25.80;99.90
18191;DHT22;47004;51.366;12.348;2023-06-22T07:19:28;25.80;99.90
18191;DHT22;47004;51.366;12.348;2023-06-22T07:21:31;25.90;99.90
18191;DHT22;47004;51.366;12.348;2023-06-22T07:23:33;25.90;99.90
18191;DHT22;47004;51.366;12.348;2023-06-22T07:25:35;25.90;99.90
18191;DHT22;47004;51.366;12.348;2023-06-22T07:27:37;25.90;99.90
18191;DHT22;47004;51.366;12.348;2023-06-22T07:29:42;26.00;99.90
18191;DHT22;47004;51.366;12.348;2023-06-22T07:31:44;26.00;99.90
18191;DHT22;47004;51.366;12.348;2023-06-22T07:33:46;26.00;99.90
18191;DHT22;47004;51.366;12.348;2023-06-22T07:35:48;26.00;99.90
18191;DHT22;47004;51.366;12.348;2023-06-22T07:37:53;26.00;99.90
18191;DHT22;47004;51.366;12.348;2023-06-22T07:39:55;26.00;99.90
18191;DHT22;47004;51.366;12.348;2023-06-22T07:41:58;26.10;99.90
18191;DHT22;47004;51.366;12.348;2023-06-22T07:44:02;26.10;99.90
18191;DHT22;47004;51.366;12.348;2023-06-22T07:46:06;26.10;99.90
18191;DHT22;47004;51.366;12.348;2023-06-22T07:48:08;26.10;99.90
18191;DHT22;47004;51.366;12.348;2023-06-22T07:50:10;26.20;99.90
18191;DHT22;47004;51.366;12.348;2023-06-22T07:52:12;26.20;99.90
18191;DHT22;47004;51.366;12.348;2023-06-22T07:54:14;26.20;99.90
18191;DHT22;47004;51.366;12.348;2023-06-22T07:56:18;26.30;99.90
18191;DHT22;47004;51.366;12.348;2023-06-22T07:58:20;26.40;99.90
18191;DHT22;47004;51.366;12.348;2023-06-22T08:00:22;26.40;99.90
18191;DHT22;47004;51.366;12.348;2023-06-22T08:02:26;26.50;99.90
18191;DHT22;47004;51.366;12.348;2023-06-22T08:04:28;26.60;99.90
18191;DHT22;47004;51.366;12.348;2023-06-22T08:06:31;26.70;99.90
18191;DHT22;47004;51.366;12.348;2023-06-22T08:08:33;26.70;99.90
18191;DHT22;47004;51.366;12.348;2023-06-22T08:10:35;26.70;99.90
18191;DHT22;47004;51.366;12.348;2023-06-22T08:12:37;26.80;99.90
18191;DHT22;47004;51.366;12.348;2023-06-22T08:14:39;26.80;99.90
18191;DHT22;47004;51.366;12.348;2023-06-22T08:16:41;26.80;99.90
18191;DHT22;47004;51.366;12.348;2023-06-22T08:18:45;26.80;99.90
18191;DHT22;47004;51.366;12.348;2023-06-22T08:20:47;26.90;99.90
18191;DHT22;47004;51.366;12.348;2023-06-22T08:22:49;26.90;99.90
18191;DHT22;47004;51.366;12.348;2023-06-22T08:24:51;26.90;99.90
18191;DHT22;47004;51.366;12.348;2023-06-22T08:26:52;27.00;99.90
18191;DHT22;47004;51.366;12.348;2023-06-22T08:28:54;27.00;99.90
18191;DHT22;47004;51.366;12.348;2023-06-22T08:30:56;27.00;99.90
18191;DHT22;47004;51.366;12.348;2023-06-22T08:32:58;27.10;99.90
18191;DHT22;47004;51.366;12.348;2023-06-22T08:35:02;27.20;99.90
18191;DHT22;47004;51.366;12.348;2023-06-22T08:37:05;27.30;99.90
18191;DHT22;47004;51.366;12.348;2023-06-22T08:39:07;27.40;99.90
18191;DHT22;47004;51.366;12.348;2023-06-22T08:41:09;27.50;99.90
18191;DHT22;47004;51.366;12.348;2023-06-22T08:43:11;27.60;99.90
18191;DHT22;47004;51.366;12.348;2023-06-22T08:45:14;27.70;99.90
18191;DHT22;47004;51.366;12.348;2023-06-22T08:47:16;27.80;99.90
18191;DHT22;47004;51.366;12.348;2023-06-22T08:49:18;27.90;99.90
18191;DHT22;47004;51.366;12.348;2023-06-22T08:51:21;28.00;99.90
18191;DHT22;47004;51.366;12.348;2023-06-22T08:53:23;28.10;99.90
18191;DHT22;47004;51.366;12.348;2023-06-22T08:55:25;28.10;99.90
18191;DHT22;47004;51.366;12.348;2023-06-22T08:57:27;28.20;99.90
18191;DHT22;47004;51.366;12.348;2023-06-22T08:59:31;28.30;99.90
18191;DHT22;47004;51.366;12.348;2023-06-22T09:01:33;28.30;99.90
18191;DHT22;47004;51.366;12.348;2023-06-22T09:03:35;28.40;99.90
18191;DHT22;47004;51.366;12.348;2023-06-22T09:05:38;28.40;99.90
18191;DHT22;47004;51.366;12.348;2023-06-22T09:07:41;28.40;99.90
18191;DHT22;47004;51.366;12.348;2023-06-22T09:09:43;28.50;99.90
18191;DHT22;47004;51.366;12.348;2023-06-22T09:11:46;28.60;99.90
18191;DHT22;47004;51.366;12.348;2023-06-22T09:13:48;28.70;99.90
18191;DHT22;47004;51.366;12.348;2023-06-22T09:15:50;28.80;99.90
18191;DHT22;47004;51.366;12.348;2023-06-22T09:17:53;28.80;99.90
18191;DHT22;47004;51.366;12.348;2023-06-22T09:19:56;28.80;99.90
18191;DHT22;47004;51.366;12.348;2023-06-22T09:21:58;28.90;99.90
18191;DHT22;47004;51.366;12.348;2023-06-22T09:24:02;28.90;99.90
18191;DHT22;47004;51.366;12.348;2023-06-22T09:26:04;28.90;99.90
18191;DHT22;47004;51.366;12.348;2023-06-22T09:28:07;28.90;99.90
18191;DHT22;47004;51.366;12.348;2023-06-22T09:30:09;28.90;99.90
18191;DHT22;47004;51.366;12.348;2023-06-22T09:32:13;29.00;99.90
18191;DHT22;47004;51.366;12.348;2023-06-22T09:34:16;29.10;99.90
18191;DHT22;47004;51.366;12.348;2023-06-22T09:36:20;29.20;99.90
18191;DHT22;47004;51.366;12.348;2023-06-22T09:38:22;29.40;99.90
18191;DHT22;47004;51.366;12.348;2023-06-22T09:40:26;29.60;99.90
18191;DHT22;47004;51.366;12.348;2023-06-22T09:42:28;29.70;99.90
18191;DHT22;47004;51.366;12.348;2023-06-22T09:44:30;29.80;99.90
18191;DHT22;47004;51.366;12.348;2023-06-22T09:46:32;29.90;99.90
18191;DHT22;47004;51.366;12.348;2023-06-22T09:48:33;29.90;99.90
18191;DHT22;47004;51.366;12.348;2023-06-22T09:50:35;30.00;99.90
18191;DHT22;47004;51.366;12.348;2023-06-22T09:52:38;30.20;99.90
18191;DHT22;47004;51.366;12.348;2023-06-22T09:54:40;30.30;99.90
18191;DHT22;47004;51.366;12.348;2023-06-22T09:56:43;30.40;99.20
18191;DHT22;47004;51.366;12.348;2023-06-22T09:58:46;30.60;98.20
18191;DHT22;47004;51.366;12.348;2023-06-22T10:00:50;30.80;94.80
18191;DHT22;47004;51.366;12.348;2023-06-22T10:02:53;31.00;94.20
18191;DHT22;47004;51.366;12.348;2023-06-22T10:04:56;31.10;93.30
18191;DHT22;47004;51.366;12.348;2023-06-22T10:06:58;31.20;94.30
18191;DHT22;47004;51.366;12.348;2023-06-22T10:09:00;31.40;92.20
18191;DHT22;47004;51.366;12.348;2023-06-22T10:11:02;31.40;87.80
18191;DHT22;47004;51.366;12.348;2023-06-22T10:13:09;31.50;88.10
18191;DHT22;47004;51.366;12.348;2023-06-22T10:15:12;31.50;86.30
18191;DHT22;47004;51.366;12.348;2023-06-22T10:17:14;31.50;85.30
18191;DHT22;47004;51.366;12.348;2023-06-22T10:19:16;31.40;79.90
18191;DHT22;47004;51.366;12.348;2023-06-22T10:21:18;31.40;82.30
18191;DHT22;47004;51.366;12.348;2023-06-22T10:23:20;31.40;78.20
18191;DHT22;47004;51.366;12.348;2023-06-22T10:25:22;31.30;76.60
18191;DHT22;47004;51.366;12.348;2023-06-22T10:27:24;31.30;78.90
18191;DHT22;47004;51.366;12.348;2023-06-22T10:29:27;31.30;81.10
18191;DHT22;47004;51.366;12.348;2023-06-22T10:31:29;31.30;78.70
18191;DHT22;47004;51.366;12.348;2023-06-22T10:33:31;31.30;76.40
18191;DHT22;47004;51.366;12.348;2023-06-22T10:35:33;31.40;75.40
18191;DHT22;47004;51.366;12.348;2023-06-22T10:37:35;31.40;77.50
18191;DHT22;47004;51.366;12.348;2023-06-22T10:39:38;31.50;74.00
18191;DHT22;47004;51.366;12.348;2023-06-22T10:41:40;31.50;76.00
18191;DHT22;47004;51.366;12.348;2023-06-22T10:43:43;31.70;75.00
18191;DHT22;47004;51.366;12.348;2023-06-22T10:45:47;31.70;70.70
18191;DHT22;47004;51.366;12.348;2023-06-22T10:47:49;31.80;67.80
18191;DHT22;47004;51.366;12.348;2023-06-22T10:49:51;31.80;66.90
18191;DHT22;47004;51.366;12.348;2023-06-22T10:51:53;31.90;66.40
18191;DHT22;47004;51.366;12.348;2023-06-22T10:53:58;32.00;67.90
18191;DHT22;47004;51.366;12.348;2023-06-22T10:56:01;32.00;68.50
18191;DHT22;47004;51.366;12.348;2023-06-22T10:58:03;32.20;71.00
18191;DHT22;47004;51.366;12.348;2023-06-22T11:00:07;32.30;67.50
18191;DHT22;47004;51.366;12.348;2023-06-22T11:02:13;32.40;66.20
18191;DHT22;47004;51.366;12.348;2023-06-22T11:04:16;32.50;63.10
18191;DHT22;47004;51.366;12.348;2023-06-22T11:06:18;32.60;62.50
18191;DHT22;47004;51.366;12.348;2023-06-22T11:08:20;32.70;61.20
18191;DHT22;47004;51.366;12.348;2023-06-22T11:10:22;32.90;58.40
18191;DHT22;47004;51.366;12.348;2023-06-22T11:12:24;33.10;56.70
18191;DHT22;47004;51.366;12.348;2023-06-22T11:14:26;33.30;61.20
18191;DHT22;47004;51.366;12.348;2023-06-22T11:16:28;33.50;54.80
18191;DHT22;47004;51.366;12.348;2023-06-22T11:18:32;33.60;51.50
18191;DHT22;47004;51.366;12.348;2023-06-22T11:20:35;33.70;51.70
18191;DHT22;47004;51.366;12.348;2023-06-22T11:22:39;33.80;51.00
18191;DHT22;47004;51.366;12.348;2023-06-22T11:24:41;33.80;47.20
18191;DHT22;47004;51.366;12.348;2023-06-22T11:26:43;33.90;49.90
18191;DHT22;47004;51.366;12.348;2023-06-22T11:28:46;34.10;46.70
18191;DHT22;47004;51.366;12.348;2023-06-22T11:30:48;34.20;46.00
18191;DHT22;47004;51.366;12.348;2023-06-22T11:32:50;34.40;46.00
18191;DHT22;47004;51.366;12.348;2023-06-22T11:34:53;34.50;45.30
18191;DHT22;47004;51.366;12.348;2023-06-22T11:36:55;34.70;45.40
18191;DHT22;47004;51.366;12.348;2023-06-22T11:38:57;34.90;44.70
18191;DHT22;47004;51.366;12.348;2023-06-22T11:40:59;35.10;43.90
18191;DHT22;47004;51.366;12.348;2023-06-22T11:43:01;35.30;43.50
18191;DHT22;47004;51.366;12.348;2023-06-22T11:45:07;35.50;42.00
18191;DHT22;47004;51.366;12.348;2023-06-22T11:47:09;35.50;41.40
18191;DHT22;47004;51.366;12.348;2023-06-22T11:49:11;35.70;40.70
18191;DHT22;47004;51.366;12.348;2023-06-22T11:51:14;35.90;40.30
18191;DHT22;47004;51.366;12.348;2023-06-22T11:53:17;36.10;40.70
18191;DHT22;47004;51.366;12.348;2023-06-22T11:55:19;36.40;41.60
18191;DHT22;47004;51.366;12.348;2023-06-22T11:57:21;36.70;39.60
18191;DHT22;47004;51.366;12.348;2023-06-22T11:59:22;36.80;39.40
18191;DHT22;47004;51.366;12.348;2023-06-22T12:01:24;37.10;38.90
18191;DHT22;47004;51.366;12.348;2023-06-22T12:03:26;37.40;38.00
18191;DHT22;47004;51.366;12.348;2023-06-22T12:05:29;37.80;37.60
18191;DHT22;47004;51.366;12.348;2023-06-22T12:07:32;38.10;37.50
18191;DHT22;47004;51.366;12.348;2023-06-22T12:09:34;38.50;35.90
18191;DHT22;47004;51.366;12.348;2023-06-22T12:11:36;38.80;34.70
18191;DHT22;47004;51.366;12.348;2023-06-22T12:13:38;39.20;33.60
18191;DHT22;47004;51.366;12.348;2023-06-22T12:15:40;39.50;34.00
18191;DHT22;47004;51.366;12.348;2023-06-22T12:17:42;39.80;32.80
18191;DHT22;47004;51.366;12.348;2023-06-22T12:19:44;40.20;32.00
18191;DHT22;47004;51.366;12.348;2023-06-22T12:21:46;40.70;31.80
18191;DHT22;47004;51.366;12.348;2023-06-22T12:23:50;41.40;30.50
18191;DHT22;47004;51.366;12.348;2023-06-22T12:25:51;42.00;29.60
18191;DHT22;47004;51.366;12.348;2023-06-22T12:27:53;42.30;29.30
18191;DHT22;47004;51.366;12.348;2023-06-22T12:29:55;43.00;28.80
18191;DHT22;47004;51.366;12.348;2023-06-22T12:31:57;43.20;28.40
18191;DHT22;47004;51.366;12.348;2023-06-22T12:33:59;43.70;27.80
18191;DHT22;47004;51.366;12.348;2023-06-22T12:36:01;44.20;27.30
18191;DHT22;47004;51.366;12.348;2023-06-22T12:38:05;44.60;26.70
18191;DHT22;47004;51.366;12.348;2023-06-22T12:40:11;45.10;26.10
18191;DHT22;47004;51.366;12.348;2023-06-22T12:42:13;45.30;26.00